createdAt,value
2022-09-25T00:00:58.879Z,100662.34
2022-09-25T00:03:25.450Z,100659.91
2022-09-25T00:05:51.802Z,100665.59
2022-09-25T00:08:18.397Z,100660.69
2022-09-25T00:10:44.827Z,100654.72
2022-09-25T00:13:11.239Z,100655.00
2022-09-25T00:15:38.044Z,100654.72
2022-09-25T00:18:04.472Z,100651.47
2022-09-25T00:20:30.892Z,100646.28
2022-09-25T00:22:57.218Z,100645.75
2022-09-25T00:25:23.533Z,100650.38
2022-09-25T00:27:50.034Z,100644.94
2022-09-25T00:30:16.526Z,100650.94
2022-09-25T00:32:42.910Z,100646.56
2022-09-25T00:35:09.641Z,100642.50
2022-09-25T00:37:36.170Z,100642.50
2022-09-25T00:40:02.863Z,100639.25
2022-09-25T00:42:29.263Z,100640.59
2022-09-25T00:44:55.606Z,100646.28
2022-09-25T00:47:21.988Z,100646.28
2022-09-25T00:49:48.364Z,100635.69
2022-09-25T00:52:14.891Z,100637.59
2022-09-25T00:54:41.169Z,100647.66
2022-09-25T00:57:07.634Z,100646.00
2022-09-25T00:59:33.966Z,100645.47
2022-09-25T01:02:00.426Z,100648.69
2022-09-25T01:04:27.777Z,100653.31
2022-09-25T01:06:55.680Z,100650.88
2022-09-25T01:09:22.136Z,100650.88
2022-09-25T01:11:48.534Z,100654.69
2022-09-25T01:14:16.258Z,100645.16
2022-09-25T01:16:42.612Z,100648.94
2022-09-25T01:19:09.065Z,100643.00
2022-09-25T01:21:35.675Z,100640.28
2022-09-25T01:24:02.275Z,100645.16
2022-09-25T01:26:28.584Z,100645.16
2022-09-25T01:28:54.955Z,100646.22
2022-09-25T01:31:21.411Z,100632.94
2022-09-25T01:33:47.699Z,100638.63
2022-09-25T01:36:14.029Z,100632.41
2022-09-25T01:38:40.396Z,100626.97
2022-09-25T01:41:06.766Z,100630.75
2022-09-25T01:43:33.077Z,100634.53
2022-09-25T01:45:59.543Z,100638.63
2022-09-25T01:48:25.953Z,100636.72
2022-09-25T01:50:52.383Z,100638.06
2022-09-25T01:53:19.026Z,100632.66
2022-09-25T01:55:45.377Z,100642.69
2022-09-25T01:58:11.966Z,100638.34
2022-09-25T02:00:38.418Z,100642.09
2022-09-25T02:03:04.901Z,100645.88
2022-09-25T02:05:31.174Z,100635.28
2022-09-25T02:07:57.731Z,100637.47
2022-09-25T02:10:24.240Z,100625.81
2022-09-25T02:12:50.633Z,100636.66
2022-09-25T02:15:17.012Z,100639.91
2022-09-25T02:17:46.362Z,100640.44
2022-09-25T02:20:12.680Z,100626.63
2022-09-25T02:22:39.303Z,100623.06
2022-09-25T02:25:05.555Z,100630.69
2022-09-25T02:27:32.279Z,100627.97
2022-09-25T02:29:58.608Z,100629.06
2022-09-25T02:32:25.070Z,100627.41
2022-09-25T02:34:51.514Z,100621.19
2022-09-25T02:37:18.163Z,100620.34
2022-09-25T02:39:44.527Z,100614.41
2022-09-25T02:42:10.821Z,100616.28
2022-09-25T02:44:37.166Z,100614.66
2022-09-25T02:47:03.478Z,100610.28
2022-09-25T02:49:29.868Z,100620.34
2022-09-25T02:51:56.369Z,100619.50
2022-09-25T02:54:23.420Z,100610.59
2022-09-25T02:56:49.774Z,100612.72
2022-09-25T02:59:16.056Z,100618.72
2022-09-25T03:01:42.500Z,100604.59
2022-09-25T03:04:10.433Z,100617.34
2022-09-25T03:06:37.478Z,100614.91
2022-09-25T03:09:03.925Z,100619.25
2022-09-25T03:11:30.273Z,100621.13
2022-09-25T03:13:56.557Z,100619.75
2022-09-25T03:16:23.093Z,100618.13
2022-09-25T03:18:49.549Z,100614.88
2022-09-25T03:21:15.914Z,100614.88
2022-09-25T03:23:42.421Z,100614.88
2022-09-25T03:26:08.766Z,100612.97
2022-09-25T03:28:35.388Z,100610.53
2022-09-25T03:31:01.720Z,100616.22
2022-09-25T03:33:28.157Z,100610.78
2022-09-25T03:35:54.461Z,100615.41
2022-09-25T03:38:20.705Z,100613.78
2022-09-25T03:40:47.025Z,100621.09
2022-09-25T03:45:38.989Z,100619.47
2022-09-25T03:48:05.448Z,100623.22
2022-09-25T03:50:31.780Z,100609.97
2022-09-25T03:52:58.130Z,100604.56
2022-09-25T03:55:27.602Z,100605.34
2022-09-25T03:57:54.975Z,100605.63
2022-09-25T04:00:21.373Z,100600.75
2022-09-25T04:02:47.797Z,100605.91
2022-09-25T04:05:14.299Z,100603.47
2022-09-25T04:07:40.618Z,100609.13
2022-09-25T04:10:06.841Z,100605.59
2022-09-25T04:12:33.227Z,100604.81
2022-09-25T04:15:01.646Z,100599.38
2022-09-25T04:17:28.455Z,100602.34
2022-09-25T04:19:54.765Z,100604.22
2022-09-25T04:22:21.187Z,100604.22
2022-09-25T04:24:47.676Z,100607.19
2022-09-25T04:27:14.113Z,100599.34
2022-09-25T04:29:40.510Z,100598.28
2022-09-25T04:32:06.920Z,100602.03
2022-09-25T04:34:33.212Z,100600.41
2022-09-25T04:36:59.618Z,100599.34
2022-09-25T04:39:25.905Z,100592.56
2022-09-25T04:41:52.174Z,100602.59
2022-09-25T04:44:18.456Z,100606.34
2022-09-25T04:46:44.847Z,100614.47
2022-09-25T04:49:11.139Z,100608.53
2022-09-25T04:51:37.566Z,100604.19
2022-09-25T04:54:04.098Z,100602.28
2022-09-25T04:56:30.550Z,100597.94
2022-09-25T04:58:56.850Z,100608.78
2022-09-25T05:01:23.418Z,100609.03
2022-09-25T05:03:50.701Z,100600.13
2022-09-25T05:06:17.255Z,100603.09
2022-09-25T05:08:43.890Z,100600.13
2022-09-25T05:11:10.221Z,100605.81
2022-09-25T05:13:36.498Z,100599.56
2022-09-25T05:16:02.843Z,100600.66
2022-09-25T05:18:29.201Z,100603.59
2022-09-25T05:20:55.472Z,100610.91
2022-09-25T05:23:21.969Z,100608.19
2022-09-25T05:25:48.543Z,100603.06
2022-09-25T05:28:14.931Z,100600.38
2022-09-25T05:30:41.675Z,100607.66
2022-09-25T05:33:09.158Z,100606.03
2022-09-25T05:35:36.882Z,100610.38
2022-09-25T05:38:03.242Z,100602.50
2022-09-25T05:40:29.699Z,100610.63
2022-09-25T05:42:56.061Z,100606.28
2022-09-25T05:45:22.391Z,100610.88
2022-09-25T05:47:48.798Z,100609.00
2022-09-25T05:50:15.514Z,100606.56
2022-09-25T05:52:41.864Z,100602.22
2022-09-25T05:55:08.303Z,100599.50
2022-09-25T05:57:36.911Z,100600.59
2022-09-25T06:00:03.262Z,100597.31
2022-09-25T06:02:29.907Z,100609.25
2022-09-25T06:04:56.317Z,100615.72
2022-09-25T06:07:22.665Z,100617.84
2022-09-25T06:09:48.991Z,100624.34
2022-09-25T06:12:15.270Z,100627.31
2022-09-25T06:14:41.633Z,100624.84
2022-09-25T06:17:07.893Z,100621.34
2022-09-25T06:19:34.246Z,100620.53
2022-09-25T06:22:00.556Z,100627.28
2022-09-25T06:24:27.084Z,100626.47
2022-09-25T06:26:53.342Z,100625.66
2022-09-25T06:29:20.080Z,100623.22
2022-09-25T06:31:46.483Z,100619.69
2022-09-25T06:34:12.839Z,100620.50
2022-09-25T06:36:39.220Z,100620.75
2022-09-25T06:39:05.572Z,100624.56
2022-09-25T06:41:31.848Z,100621.00
2022-09-25T06:43:59.272Z,100616.94
2022-09-25T06:46:25.770Z,100621.28
2022-09-25T06:48:52.431Z,100620.47
2022-09-25T06:51:19.896Z,100618.81
2022-09-25T06:53:46.141Z,100618.81
2022-09-25T06:56:12.471Z,100621.25
2022-09-25T06:58:39.107Z,100617.44
2022-09-25T07:01:09.731Z,100616.66
2022-09-25T07:03:36.131Z,100618.91
2022-09-25T07:06:02.425Z,100616.66
2022-09-25T07:08:28.759Z,100618.00
2022-09-25T07:10:55.010Z,100616.59
2022-09-25T07:13:21.366Z,100611.19
2022-09-25T07:15:47.735Z,100616.09
2022-09-25T07:18:14.114Z,100610.16
2022-09-25T07:20:40.806Z,100603.13
2022-09-25T07:23:07.132Z,100610.16
2022-09-25T07:25:33.465Z,100607.19
2022-09-25T07:28:00.714Z,100609.91
2022-09-25T07:30:27.050Z,100603.66
2022-09-25T07:32:59.213Z,100599.88
2022-09-25T07:35:28.480Z,100600.69
2022-09-25T07:37:54.814Z,100595.28
2022-09-25T07:40:22.118Z,100601.22
2022-09-25T07:42:48.568Z,100603.94
2022-09-25T07:45:14.820Z,100606.09
2022-09-25T07:47:41.357Z,100604.22
2022-09-25T07:50:10.887Z,100606.94
2022-09-25T07:52:40.069Z,100599.59
2022-09-25T07:55:06.774Z,100600.69
2022-09-25T07:57:33.082Z,100606.09
2022-09-25T07:59:59.429Z,100605.84
2022-09-25T08:02:25.787Z,100604.78
2022-09-25T08:04:52.334Z,100605.84
2022-09-25T08:07:18.573Z,100603.94
2022-09-25T08:09:44.866Z,100613.97
2022-09-25T08:12:11.356Z,100609.66
2022-09-25T08:14:37.635Z,100618.31
2022-09-25T08:17:03.899Z,100611.00
2022-09-25T08:19:30.716Z,100616.16
2022-09-25T08:21:57.042Z,100617.22
2022-09-25T08:24:23.576Z,100617.78
2022-09-25T08:26:49.890Z,100617.78
2022-09-25T08:29:16.157Z,100622.13
2022-09-25T08:31:42.433Z,100613.47
2022-09-25T08:34:35.902Z,100620.75
2022-09-25T08:36:55.018Z,100618.59
2022-09-25T08:39:21.406Z,100614.50
2022-09-25T08:44:23.042Z,100614.50
2022-09-25T08:46:49.504Z,100608.84
2022-09-25T08:49:15.787Z,100610.19
2022-09-25T08:51:42.342Z,100600.44
2022-09-25T08:54:09.339Z,100602.88
2022-09-25T08:56:35.770Z,100602.88
2022-09-25T08:59:02.150Z,100596.09
2022-09-25T09:01:28.578Z,100599.59
2022-09-25T09:03:55.619Z,100595.03
2022-09-25T09:06:22.184Z,100590.41
2022-09-25T09:08:48.481Z,100593.94
2022-09-25T09:11:14.820Z,100597.22
2022-09-25T09:13:41.296Z,100582.84
2022-09-25T09:16:07.667Z,100587.19
2022-09-25T09:18:33.973Z,100588.00
2022-09-25T09:21:00.295Z,100578.25
2022-09-25T09:23:26.776Z,100583.38
2022-09-25T09:25:53.242Z,100588.00
2022-09-25T09:28:19.588Z,100581.75
2022-09-25T09:30:45.986Z,100578.81
2022-09-25T09:33:12.631Z,100587.75
2022-09-25T09:35:39.145Z,100582.06
2022-09-25T09:38:05.613Z,100583.13
2022-09-25T09:40:32.195Z,100571.50
2022-09-25T09:42:58.654Z,100578.81
2022-09-25T09:45:25.209Z,100567.97
2022-09-25T09:47:51.697Z,100573.38
2022-09-25T09:50:18.523Z,100565.25
2022-09-25T09:52:44.871Z,100564.19
2022-09-25T09:55:11.440Z,100563.09
2022-09-25T09:57:37.803Z,100556.06
2022-09-25T10:00:05.529Z,100553.59
2022-09-25T10:02:32.258Z,100558.22
2022-09-25T10:04:58.666Z,100549.03
2022-09-25T10:07:24.963Z,100550.09
2022-09-25T10:09:51.237Z,100551.19
2022-09-25T10:12:17.597Z,100552.81
2022-09-25T10:14:43.841Z,100543.88
2022-09-25T10:17:10.343Z,100550.38
2022-09-25T10:19:36.687Z,100543.88
2022-09-25T10:22:03.120Z,100540.63
2022-09-25T10:24:29.355Z,100538.97
2022-09-25T10:26:55.859Z,100535.47
2022-09-25T10:29:22.279Z,100529.78
2022-09-25T10:31:48.806Z,100542.25
2022-09-25T10:34:16.009Z,100531.66
2022-09-25T10:36:42.464Z,100531.41
2022-09-25T10:39:42.390Z,100522.47
2022-09-25T10:41:57.271Z,100526.53
2022-09-25T10:44:23.676Z,100520.31
2022-09-25T10:46:50.138Z,100520.31
2022-09-25T10:49:16.417Z,100516.00
2022-09-25T10:51:42.719Z,100518.16
2022-09-25T10:54:08.999Z,100519.22
2022-09-25T10:56:35.271Z,100517.34
2022-09-25T10:59:01.713Z,100518.41
2022-09-25T11:01:29.152Z,100520.31
2022-09-25T11:03:55.893Z,100517.63
2022-09-25T11:06:22.207Z,100513.28
2022-09-25T11:08:48.584Z,100508.13
2022-09-25T11:11:14.920Z,100517.31
2022-09-25T11:13:41.265Z,100506.47
2022-09-25T11:16:07.827Z,100518.66
2022-09-25T11:18:34.175Z,100508.38
2022-09-25T11:21:00.449Z,100501.84
2022-09-25T11:23:27.237Z,100499.66
2022-09-25T11:25:53.800Z,100497.22
2022-09-25T11:28:20.360Z,100504.53
2022-09-25T11:30:46.725Z,100488.25
2022-09-25T11:33:13.063Z,100494.19
2022-09-25T11:35:39.429Z,100486.91
2022-09-25T11:38:06.331Z,100495.56
2022-09-25T11:40:32.990Z,100479.31
2022-09-25T11:42:59.407Z,100478.47
2022-09-25T11:45:26.056Z,100478.47
2022-09-25T11:47:52.411Z,100466.28
2022-09-25T11:50:18.886Z,100473.59
2022-09-25T11:52:45.578Z,100473.31
2022-09-25T11:55:11.858Z,100469.28
2022-09-25T11:57:38.195Z,100471.44
2022-09-25T12:00:04.510Z,100472.25
2022-09-25T12:02:30.851Z,100459.00
2022-09-25T12:04:57.361Z,100466.31
2022-09-25T12:07:23.766Z,100462.78
2022-09-25T12:09:51.583Z,100464.97
2022-09-25T12:12:18.183Z,100457.66
2022-09-25T12:14:44.813Z,100457.41
2022-09-25T12:17:11.218Z,100456.31
2022-09-25T12:19:38.251Z,100452.78
2022-09-25T12:22:04.536Z,100452.25
2022-09-25T12:24:33.108Z,100457.41
2022-09-25T12:26:59.586Z,100459.03
2022-09-25T12:29:25.948Z,100458.47
2022-09-25T12:31:52.198Z,100456.31
2022-09-25T12:34:18.943Z,100452.78
2022-09-25T12:36:45.337Z,100452.53
2022-09-25T12:39:11.590Z,100450.91
2022-09-25T12:41:37.865Z,100444.94
2022-09-25T12:44:04.234Z,100441.44
2022-09-25T12:46:30.513Z,100442.22
2022-09-25T12:48:56.807Z,100443.06
2022-09-25T12:51:23.471Z,100437.38
2022-09-25T12:53:49.889Z,100437.13
2022-09-25T12:56:16.364Z,100435.22
2022-09-25T12:58:42.715Z,100427.09
2022-09-25T13:01:08.989Z,100426.28
2022-09-25T13:03:35.485Z,100430.88
2022-09-25T13:06:02.269Z,100421.16
2022-09-25T13:08:29.522Z,100423.03
2022-09-25T13:10:55.886Z,100423.84
2022-09-25T13:13:22.266Z,100425.72
2022-09-25T13:15:48.878Z,100420.31
2022-09-25T13:18:15.207Z,100422.22
2022-09-25T13:20:41.637Z,100417.59
2022-09-25T13:23:07.940Z,100424.94
2022-09-25T13:25:34.522Z,100415.72
2022-09-25T13:28:00.998Z,100421.16
2022-09-25T13:30:27.267Z,100421.16
2022-09-25T13:32:53.696Z,100413.28
2022-09-25T13:35:20.184Z,100414.09
2022-09-25T13:37:46.580Z,100408.97
2022-09-25T13:40:13.476Z,100402.72
2022-09-25T13:42:39.930Z,100403.81
2022-09-25T13:45:06.274Z,100399.19
2022-09-25T13:47:32.830Z,100401.09
2022-09-25T13:49:59.283Z,100402.19
2022-09-25T13:52:25.957Z,100395.94
2022-09-25T13:54:52.311Z,100391.63
2022-09-25T13:57:18.636Z,100399.47
2022-09-25T13:59:44.998Z,100397.81
2022-09-25T14:02:11.629Z,100404.59
2022-09-25T14:04:38.338Z,100396.19
2022-09-25T14:07:04.785Z,100390.00
2022-09-25T14:09:31.115Z,100390.00
2022-09-25T14:11:57.579Z,100382.94
2022-09-25T14:14:23.987Z,100389.44
2022-09-25T14:16:50.241Z,100384.00
2022-09-25T14:19:16.962Z,100388.06
2022-09-25T14:21:44.040Z,100385.09
2022-09-25T14:24:10.553Z,100375.38
2022-09-25T14:26:37.117Z,100375.38
2022-09-25T14:29:03.459Z,100377.25
2022-09-25T14:31:30.058Z,100375.38
2022-09-25T14:33:56.492Z,100368.31
2022-09-25T14:36:22.779Z,100379.13
2022-09-25T14:38:49.119Z,100367.75
2022-09-25T14:41:15.431Z,100367.75
2022-09-25T14:43:41.961Z,100361.53
2022-09-25T14:46:10.372Z,100355.84
2022-09-25T14:48:39.134Z,100364.50
2022-09-25T14:51:05.529Z,100359.38
2022-09-25T14:53:32.095Z,100356.94
2022-09-25T14:55:58.538Z,100356.94
2022-09-25T14:58:24.849Z,100360.44
2022-09-25T15:00:51.174Z,100352.31
2022-09-25T15:03:18.973Z,100348.25
2022-09-25T15:05:45.257Z,100350.94
2022-09-25T15:08:11.668Z,100346.63
2022-09-25T15:10:37.909Z,100344.19
2022-09-25T15:13:04.265Z,100344.19
2022-09-25T15:15:30.527Z,100348.78
2022-09-25T15:17:56.767Z,100352.28
2022-09-25T15:20:23.274Z,100346.34
2022-09-25T15:22:49.605Z,100344.69
2022-09-25T15:25:15.885Z,100343.91
2022-09-25T15:27:42.162Z,100338.50
2022-09-25T15:30:08.509Z,100337.66
2022-09-25T15:32:34.822Z,100338.75
2022-09-25T15:35:01.567Z,100334.44
2022-09-25T15:37:28.130Z,100330.63
2022-09-25T15:39:54.632Z,100336.31
2022-09-25T15:42:20.990Z,100332.78
2022-09-25T15:44:47.696Z,100320.34
2022-09-25T15:47:14.084Z,100329.28
2022-09-25T15:49:41.323Z,100332.78
2022-09-25T15:52:07.680Z,100336.56
2022-09-25T15:54:34.226Z,100329.53
2022-09-25T15:57:01.883Z,100332.50
2022-09-25T15:59:29.102Z,100329.81
2022-09-25T16:01:58.905Z,100328.72
2022-09-25T16:04:26.482Z,100327.91
2022-09-25T16:06:53.928Z,100322.50
2022-09-25T16:09:22.439Z,100333.34
2022-09-25T16:11:51.545Z,100324.13
2022-09-25T16:14:17.955Z,100317.09
2022-09-25T16:16:44.470Z,100318.72
2022-09-25T16:19:10.967Z,100316.28
2022-09-25T16:21:37.425Z,100327.09
2022-09-25T16:24:04.510Z,100323.59
2022-09-25T16:26:31.084Z,100325.47
2022-09-25T16:28:57.472Z,100327.91
2022-09-25T16:31:24.095Z,100333.34
2022-09-25T16:33:50.479Z,100324.38
2022-09-25T16:36:18.014Z,100326.31
2022-09-25T16:38:44.699Z,100325.47
2022-09-25T16:41:10.971Z,100320.06
2022-09-25T16:43:37.360Z,100326.56
2022-09-25T16:46:03.698Z,100327.91
2022-09-25T16:48:30.048Z,100323.03
2022-09-25T16:50:56.349Z,100323.84
2022-09-25T16:53:22.682Z,100325.72
2022-09-25T16:55:48.960Z,100322.19
2022-09-25T16:58:15.238Z,100323.03
2022-09-25T17:00:41.653Z,100314.91
2022-09-25T17:03:07.979Z,100323.03
2022-09-25T17:05:34.324Z,100308.69
2022-09-25T17:08:01.022Z,100306.81
2022-09-25T17:10:27.474Z,100309.50
2022-09-25T17:12:54.194Z,100307.88
2022-09-25T17:15:20.638Z,100306.25
2022-09-25T17:17:47.055Z,100308.16
2022-09-25T17:20:13.286Z,100303.00
2022-09-25T17:22:39.603Z,100303.56
2022-09-25T17:25:06.046Z,100302.75
2022-09-25T17:27:32.539Z,100297.59
2022-09-25T17:29:58.933Z,100315.44
2022-09-25T17:32:25.648Z,100303.25
2022-09-25T17:34:53.274Z,100301.13
2022-09-25T17:37:19.730Z,100302.19
2022-09-25T17:39:46.349Z,100302.47
2022-09-25T17:42:12.705Z,100304.91
2022-09-25T17:44:38.997Z,100305.69
2022-09-25T17:47:05.307Z,100303.00
2022-09-25T17:49:31.591Z,100305.69
2022-09-25T17:51:57.883Z,100299.50
2022-09-25T17:54:24.175Z,100297.06
2022-09-25T17:56:50.691Z,100301.63
2022-09-25T17:59:17.201Z,100301.63
2022-09-25T18:01:43.921Z,100310.00
2022-09-25T18:04:10.524Z,100308.94
2022-09-25T18:06:36.787Z,100308.13
2022-09-25T18:09:03.191Z,100306.22
2022-09-25T18:11:29.465Z,100310.84
2022-09-25T18:13:55.948Z,100304.81
2022-09-25T18:16:22.345Z,100299.19
2022-09-25T18:18:48.649Z,100307.31
2022-09-25T18:21:15.073Z,100299.19
2022-09-25T18:23:41.418Z,100308.34
2022-09-25T18:26:07.891Z,100302.94
2022-09-25T18:28:34.291Z,100311.31
2022-09-25T18:31:00.831Z,100307.53
2022-09-25T18:33:27.173Z,100310.50
2022-09-25T18:35:53.544Z,100306.75
2022-09-25T18:38:19.810Z,100293.22
2022-09-25T18:40:46.200Z,100300.50
2022-09-25T18:43:12.735Z,100299.69
2022-09-25T18:45:38.998Z,100299.69
2022-09-25T18:48:05.277Z,100296.19
2022-09-25T18:50:31.610Z,100309.69
2022-09-25T18:52:57.992Z,100301.84
2022-09-25T18:55:24.266Z,100311.31
2022-09-25T18:57:50.659Z,100304.28
2022-09-25T19:00:17.003Z,100311.59
2022-09-25T19:02:43.756Z,100305.38
2022-09-25T19:05:11.107Z,100306.44
2022-09-25T19:07:37.678Z,100308.09
2022-09-25T19:10:04.139Z,100302.09
2022-09-25T19:12:30.482Z,100306.44
2022-09-25T19:14:56.873Z,100290.22
2022-09-25T19:17:23.448Z,100294.00
2022-09-25T19:19:49.689Z,100291.28
2022-09-25T19:22:16.260Z,100288.84
2022-09-25T19:24:42.791Z,100295.91
2022-09-25T19:27:09.143Z,100294.00
2022-09-25T19:29:35.633Z,100305.91
2022-09-25T19:32:03.076Z,100302.38
2022-09-25T19:34:29.301Z,100305.06
2022-09-25T19:36:55.821Z,100299.66
2022-09-25T19:39:22.249Z,100304.28
2022-09-25T19:41:48.583Z,100306.16
2022-09-25T19:44:14.885Z,100300.75
2022-09-25T19:46:41.539Z,100301.84
2022-09-25T19:49:08.015Z,100299.91
2022-09-25T19:51:34.617Z,100303.44
2022-09-25T19:54:00.873Z,100297.50
2022-09-25T19:56:27.326Z,100297.50
2022-09-25T19:58:53.646Z,100304.53
2022-09-25T20:01:19.972Z,100297.75
2022-09-25T20:03:46.306Z,100299.38
2022-09-25T20:06:12.803Z,100303.97
2022-09-25T20:08:39.200Z,100301.25
2022-09-25T20:11:05.606Z,100295.84
2022-09-25T20:13:31.893Z,100298.56
2022-09-25T20:15:58.263Z,100297.75
2022-09-25T20:18:24.805Z,100286.94
2022-09-25T20:20:51.086Z,100294.50
2022-09-25T20:23:17.532Z,100285.59
2022-09-25T20:25:43.949Z,100297.19
2022-09-25T20:28:10.293Z,100292.88
2022-09-25T20:30:36.572Z,100287.47
2022-09-25T20:33:02.949Z,100282.06
2022-09-25T20:35:29.279Z,100279.34
2022-09-25T20:37:55.898Z,100276.66
2022-09-25T20:40:22.413Z,100271.25
2022-09-25T20:42:48.738Z,100270.41
2022-09-25T20:45:15.094Z,100273.94
2022-09-25T20:47:46.015Z,100271.50
2022-09-25T20:50:12.746Z,100269.06
2022-09-25T20:52:39.449Z,100265.31
2022-09-25T20:55:06.032Z,100269.88
2022-09-25T20:57:32.394Z,100266.63
2022-09-25T20:59:58.799Z,100263.91
2022-09-25T21:02:25.393Z,100267.19
2022-09-25T21:04:51.767Z,100262.84
2022-09-25T21:07:18.083Z,100261.22
2022-09-25T21:09:44.430Z,100261.22
2022-09-25T21:12:10.705Z,100259.31
2022-09-25T21:14:37.068Z,100261.22
2022-09-25T21:17:03.499Z,100248.78
2022-09-25T21:19:30.034Z,100253.38
2022-09-25T21:21:56.485Z,100254.19
2022-09-25T21:24:22.824Z,100256.09
2022-09-25T21:26:49.111Z,100257.16
2022-09-25T21:29:15.458Z,100256.09
2022-09-25T21:31:46.596Z,100256.34
2022-09-25T21:34:15.611Z,100249.31
2022-09-25T21:36:42.027Z,100257.44
2022-09-25T21:39:08.353Z,100244.72
2022-09-25T21:41:34.710Z,100250.13
2022-09-25T21:44:01.229Z,100248.50
2022-09-25T21:46:27.570Z,100242.25
2022-09-25T21:48:54.245Z,100248.50
2022-09-25T21:51:20.736Z,100246.88
2022-09-25T21:53:47.014Z,100246.88
2022-09-25T21:56:13.281Z,100243.34
2022-09-25T21:58:39.718Z,100244.44
2022-09-25T22:01:06.137Z,100236.59
2022-09-25T22:03:32.755Z,100242.81
2022-09-25T22:05:59.307Z,100239.56
2022-09-25T22:08:27.279Z,100236.03
2022-09-25T22:10:53.636Z,100238.72
2022-09-25T22:13:19.914Z,100238.19
2022-09-25T22:15:46.266Z,100232.78
2022-09-25T22:18:12.679Z,100238.19
2022-09-25T22:20:38.945Z,100233.59
2022-09-25T22:23:05.310Z,100230.91
2022-09-25T22:25:31.657Z,100231.97
2022-09-25T22:27:58.489Z,100231.97
2022-09-25T22:30:24.841Z,100229.25
2022-09-25T22:32:51.140Z,100227.63
2022-09-25T22:35:17.427Z,100226.56
2022-09-25T22:37:43.952Z,100227.63
2022-09-25T22:40:10.368Z,100223.06
2022-09-25T22:42:36.761Z,100210.63
2022-09-25T22:45:03.293Z,100207.91
2022-09-25T22:47:29.781Z,100203.56
2022-09-25T22:49:56.054Z,100206.00
2022-09-25T22:52:22.386Z,100195.47
2022-09-25T22:54:48.832Z,100197.38
2022-09-25T22:57:15.113Z,100194.66
2022-09-25T22:59:41.417Z,100195.47
2022-09-25T23:02:07.897Z,100195.47
2022-09-25T23:04:34.957Z,100196.28
2022-09-25T23:07:01.288Z,100192.75
2022-09-25T23:09:27.579Z,100197.38
2022-09-25T23:11:53.876Z,100191.97
2022-09-25T23:14:20.264Z,100185.72
2022-09-25T23:16:46.645Z,100183.03
2022-09-25T23:19:13.119Z,100182.22
2022-09-25T23:21:39.710Z,100186.81
2022-09-25T23:24:06.016Z,100184.91
2022-09-25T23:26:32.372Z,100184.13
2022-09-25T23:28:58.663Z,100196.00
2022-09-25T23:31:24.962Z,100191.41
2022-09-25T23:33:51.302Z,100187.06
2022-09-25T23:36:17.671Z,100196.81
2022-09-25T23:38:44.018Z,100197.88
2022-09-25T23:41:10.282Z,100186.00
2022-09-25T23:43:36.619Z,100187.06
2022-09-25T23:46:03.224Z,100177.88
2022-09-25T23:48:29.513Z,100182.75
2022-09-25T23:50:55.760Z,100179.78
2022-09-25T23:53:22.197Z,100180.84
2022-09-25T23:55:48.477Z,100180.06
2022-09-25T23:58:14.781Z,100175.44
